This is the latest recevied weather packets stored in our database for station/object N0ZJT. If no packets are shown the sender has not sent any weather packets the latest 10 day(s).
| Time | Temp. | Humidity | Pressure | Rain* | Wind** | Luminosity | Snow |
|---|---|---|---|---|---|---|---|
| 1777241690 | 21.67° C | 50% | 973.1 hPa | 0 mm | - | - | - |
| 1777240730 | 21.67° C | 49% | 973.3 hPa | 0 mm | - | - | - |
| 1777239890 | 21.67° C | 49% | 973.4 hPa | 0 mm | - | - | - |
| 1777238930 | 21.11° C | 52% | 973.9 hPa | 0 mm | - | - | - |
| 1777238090 | 21.11° C | 51% | 973.9 hPa | 0 mm | - | - | - |
| 1777237130 | 21.11° C | 50% | 974.1 hPa | 0 mm | - | - | - |
| 1777236290 | 21.67° C | 47% | 974.1 hPa | 0 mm | - | - | - |
| 1777235330 | 21.67° C | 48% | 974.1 hPa | 0 mm | - | - | - |
| 1777234490 | 22.22° C | 46% | 974.1 hPa | 0 mm | - | - | - |
| 1777233530 | 22.22° C | 50% | 974.4 hPa | 0 mm | - | - | - |
| 1777232690 | 21.11° C | 49% | 974.7 hPa | 0 mm | - | - | - |
| 1777231730 | 20.56° C | 46% | 975 hPa | 0 mm | - | - | - |
| 1777230890 | 20.56° C | 49% | 975.1 hPa | 0 mm | - | - | - |
| 1777229930 | 21.11° C | 48% | 975.3 hPa | 0 mm | - | - | - |
| 1777229090 | 21.67° C | 49% | 975.3 hPa | 0 mm | - | - | - |
| 1777228130 | 21.11° C | 51% | 975.9 hPa | 0 mm | - | - | - |
| 1777227290 | 21.67° C | 51% | 976 hPa | 0 mm | - | - | - |
| 1777226330 | 21.11° C | 50% | 976.3 hPa | 0 mm | - | - | - |
| 1777225490 | 21.67° C | 51% | 976.3 hPa | 0 mm | - | - | - |
| 1777224530 | 21.11° C | 54% | 976.4 hPa | 0 mm | - | - | - |
| 1777223690 | 20.56° C | 57% | 976.8 hPa | 0 mm | - | - | - |
| 1777222730 | 19.44° C | 62% | 976.9 hPa | 0 mm | - | - | - |
| 1777221890 | 18.33° C | 63% | 977.3 hPa | 0 mm | - | - | - |
| 1777220930 | 17.78° C | 63% | 977.2 hPa | 0 mm | - | - | - |
| 1777220090 | 18.33° C | 62% | 977.3 hPa | 0 mm | - | - | - |
* Rain latest hour (hover to see other rain measurements)
** Current wind speed in m/s (hover to see current wind gust speed)